Aérodrome :
LOGIN :

S'inscrire | Disclaimer

   EN    FR    IT 

 










Légende :    VFR   VFR Marginal   IFR   IFR Intensif   IFR Très Intensif
Visi : 
Plafond : 
>= 8 km
>= 3000ft
5 à 8 km
1000 à 3000 ft
1500m à 5 km
500 à 1000 ft
800 à 1500m
200 à 500 ft
< 800m
< 200 ft
Symboles :   Orages  Brouillard  Fortes neiges  Fortes précipitations  Vent > 20 kt
SIGMETs :   Divers  Orages  Givrage  Turbulence  Onde Orograph.  Cendres Volcan.






- Altitude de l'aérodrome : 219 ft
- Code IATA : DNR


LFRD - Dinard

DERNIER METAR :
  • 160600Z AUTO 21008KT CAVOK 10/09 Q1002 TEMPO 4000 SHRA BKN010TCU

METARs EXPIRÉS :
  • 160530Z AUTO 22008KT 9999 SCT016 09/08 Q1002 TEMPO 4000 SHRA BKN010TCU
  • 160500Z AUTO 22008KT CAVOK 09/08 Q1002 TEMPO 4000 SHRA BKN010TCU
  • 160430Z AUTO 22006KT CAVOK 08/07 Q1002 TEMPO 4000 SHRA BKN010TCU
  • 160400Z AUTO 22006KT CAVOK 09/08 Q1002 TEMPO 4000 SHRA BKN010TCU
  • 160330Z AUTO 22006KT CAVOK 09/08 Q1002 TEMPO 4000 SHRA BKN010TCU

TAF TAF LFRD
Valide du 16 à 06h jusqu'au 17 à 06h UTC


160500Z 1606/1706 21010KT 9999 BKN030
PROB40
TEMPO 1606/1608 4000 SHRA BKN010TCU
TEMPO 1608/1619 4000 SHRA BKN013CB
BECMG 1609/1611 23015G30KT
PROB40
TEMPO 1610/1618 24020G40KT 3000 TSRA
BECMG 1618/1620 24010KT
PROB40
TEMPO 1619/1706 4000 SHRA BKN010CB
ATIS : +33 2 99 16 81 50



MET'MAP, la Météo Aéronautique d'un coup d'oeil ! - Copyright ORBIFLY Décembre 2007 - Disclaimer

ORBIFLY MET'MAP TEAM :

Programmation & Développement : Alexandra Zaïnal
Sur une idée originale de : Baudouin d'Aumeries
Assistance à la programmation : Marc-Olivier Méhu
Soutien technique & logistique : Manuel Goepfert

Contact : metmap@orbifly.com




SOURCES & CREDITS :

   NOAA